LEST/SCQ METAR and TAF weather

Enter ICAO airport designator
Station Type Date Time Source
LEST METAR 2022/01/26 19:30 UTC NOAA

LEST 261930Z 04004KT 360V080 CAVOK 08/02 Q1028 NOSIG


Station Type Date Time Source
LEST Decoded METAR 2022/01/26 19:30 UTC NOAA

Santiago / Labacolla, Spain (LEST) 42-54N 008-26W 367M
Jan 26, 2022 - 02:30 PM EST / 2022.01.26 1930 UTC
Wind: from the NE (040 degrees) at 5 MPH (4 KT) (direction variable):0
Visibility: greater than 7 mile(s):0
Temperature: 46 F (8 C)
Dew Point: 35 F (2 C)
Relative Humidity: 65%
Pressure (altimeter): 30.36 in. Hg (1028 hPa)
ob: LEST 261930Z 04004KT 360V080 CAVOK 08/02 Q1028 NOSIG
cycle: 19

Station Type Date Time Source
LEST TAF 2022/01/26 18:27 UTC NOAA

TAF LEST 261700Z 2618/2718 07006KT CAVOK TX13/2715Z TN01/2706Z PROB30
TEMPO 2621/2708 3000 BR BCFG PROB30
TEMPO 2623/2702 1500 BCFG

Example: see airport list